Current Weather

Chicago O'Hare International

Chicago, Illinois (KORD)

Report from: Wednesday, May 29, 2024 2:19 AM CDT
Current time: Wednesday, May 29, 2024 2:55 AM CDT

Nearby weather – Weather history – Daily summaries
Weather forecast

Temperature12.8°C (55.0°F)
Dew point11.1°C (52.0°F)
Winds 9 kts (4.6 m/s, 10.4 mph) North-Northwest (340°)
Visibility10 mi. (16.1 km)
Clouds Ceiling: Broken clouds 1,700 ft. (518 m)
Broken clouds 6,000 ft. (1,829 m)
Overcast 8,000 ft. (2,438 m)
Altimeter30.05 in.Hg (1018 mB)
Relative humidity89 %
Density altitude-223 ft. (-68 m)
Remarks Automated weather observing station with precipitation discriminator
Flight conditions Marginal Visual Meteorological Conditions
Raw dataKORD 290719Z 34009KT 10SM BKN017 BKN060 OVC080 13/11 A3005 RMK AO2 T01280111
An error has occurred. This application may no longer respond until reloaded. Reload 🗙